sensor_id;sensor_type;location;lat;lon;timestamp;P1;durP1;ratioP1;P2;durP2;ratioP2
65150;SDS011;51918;51.856;0.150;2023-02-07T12:24:29;31.80;;;12.25;;
65150;SDS011;51918;51.856;0.150;2023-02-07T12:29:39;23.10;;;10.30;;
65150;SDS011;51918;51.856;0.150;2023-02-07T12:34:53;24.90;;;11.10;;
65150;SDS011;51918;51.856;0.150;2023-02-07T12:40:02;18.58;;;9.52;;
65150;SDS011;51918;51.856;0.150;2023-02-07T12:45:08;18.83;;;9.95;;
65150;SDS011;51918;51.856;0.150;2023-02-07T12:55:53;18.00;;;8.55;;
65150;SDS011;51918;51.856;0.150;2023-02-07T13:01:03;16.42;;;8.60;;
65150;SDS011;51918;51.856;0.150;2023-02-07T13:06:13;16.60;;;8.80;;
65150;SDS011;51918;51.856;0.150;2023-02-07T13:11:28;16.15;;;6.75;;
65150;SDS011;51918;51.856;0.150;2023-02-07T13:16:37;15.93;;;5.93;;
65150;SDS011;51918;51.856;0.150;2023-02-07T13:21:45;11.32;;;5.38;;
65150;SDS011;51918;51.856;0.150;2023-02-07T13:26:53;11.65;;;4.90;;
65150;SDS011;51918;51.856;0.150;2023-02-07T13:31:55;13.18;;;5.97;;
65150;SDS011;51918;51.856;0.150;2023-02-07T13:36:59;14.82;;;6.13;;
65150;SDS011;51918;51.856;0.150;2023-02-07T13:42:07;13.15;;;4.85;;
65150;SDS011;51918;51.856;0.150;2023-02-07T13:52:58;10.52;;;4.15;;
65150;SDS011;51918;51.856;0.150;2023-02-07T14:03:42;10.63;;;3.53;;
65150;SDS011;51918;51.856;0.150;2023-02-07T14:09:02;8.68;;;2.90;;
65150;SDS011;51918;51.856;0.150;2023-02-07T14:14:23;11.20;;;3.95;;
65150;SDS011;51918;51.856;0.150;2023-02-07T14:30:25;15.30;;;3.70;;
65150;SDS011;51918;51.856;0.150;2023-02-07T14:35:30;10.77;;;3.63;;
65150;SDS011;51918;51.856;0.150;2023-02-07T14:40:33;8.88;;;3.22;;
65150;SDS011;51918;51.856;0.150;2023-02-07T14:45:57;10.63;;;3.85;;
65150;SDS011;51918;51.856;0.150;2023-02-07T14:51:03;11.02;;;3.80;;
65150;SDS011;51918;51.856;0.150;2023-02-07T14:56:11;11.65;;;4.22;;
65150;SDS011;51918;51.856;0.150;2023-02-07T15:01:24;14.05;;;4.50;;
65150;SDS011;51918;51.856;0.150;2023-02-07T15:06:26;17.10;;;5.18;;
65150;SDS011;51918;51.856;0.150;2023-02-07T15:11:27;9.77;;;3.90;;
65150;SDS011;51918;51.856;0.150;2023-02-07T15:16:28;13.85;;;4.40;;
65150;SDS011;51918;51.856;0.150;2023-02-07T15:21:34;14.88;;;5.85;;
65150;SDS011;51918;51.856;0.150;2023-02-07T15:26:40;13.02;;;5.50;;
65150;SDS011;51918;51.856;0.150;2023-02-07T15:31:40;15.80;;;5.57;;
65150;SDS011;51918;51.856;0.150;2023-02-07T15:36:43;19.98;;;7.85;;
65150;SDS011;51918;51.856;0.150;2023-02-07T15:41:44;19.60;;;7.22;;
65150;SDS011;51918;51.856;0.150;2023-02-07T15:46:47;22.02;;;7.38;;
65150;SDS011;51918;51.856;0.150;2023-02-07T15:51:51;20.10;;;8.07;;
65150;SDS011;51918;51.856;0.150;2023-02-07T15:56:57;18.15;;;8.38;;
65150;SDS011;51918;51.856;0.150;2023-02-07T16:01:59;23.92;;;8.18;;
65150;SDS011;51918;51.856;0.150;2023-02-07T16:07:03;22.50;;;9.80;;
65150;SDS011;51918;51.856;0.150;2023-02-07T16:17:42;19.60;;;8.63;;
65150;SDS011;51918;51.856;0.150;2023-02-07T16:22:44;23.42;;;11.18;;
65150;SDS011;51918;51.856;0.150;2023-02-07T16:27:46;20.15;;;8.68;;
65150;SDS011;51918;51.856;0.150;2023-02-07T16:32:49;22.65;;;9.50;;
65150;SDS011;51918;51.856;0.150;2023-02-07T16:37:51;22.73;;;8.57;;
65150;SDS011;51918;51.856;0.150;2023-02-07T16:42:53;26.25;;;10.02;;
65150;SDS011;51918;51.856;0.150;2023-02-07T16:47:55;23.25;;;9.20;;
65150;SDS011;51918;51.856;0.150;2023-02-07T16:52:59;25.50;;;9.82;;
65150;SDS011;51918;51.856;0.150;2023-02-07T16:57:59;25.23;;;8.13;;
65150;SDS011;51918;51.856;0.150;2023-02-07T17:03:07;20.50;;;8.57;;
65150;SDS011;51918;51.856;0.150;2023-02-07T17:08:16;24.05;;;9.65;;
65150;SDS011;51918;51.856;0.150;2023-02-07T17:13:20;21.77;;;8.55;;
65150;SDS011;51918;51.856;0.150;2023-02-07T17:18:20;26.48;;;9.88;;
65150;SDS011;51918;51.856;0.150;2023-02-07T17:23:23;23.70;;;8.82;;
65150;SDS011;51918;51.856;0.150;2023-02-07T17:28:23;23.98;;;8.55;;
65150;SDS011;51918;51.856;0.150;2023-02-07T17:33:24;21.75;;;8.32;;
65150;SDS011;51918;51.856;0.150;2023-02-07T17:38:26;21.77;;;8.63;;
65150;SDS011;51918;51.856;0.150;2023-02-07T17:43:26;26.02;;;9.43;;
65150;SDS011;51918;51.856;0.150;2023-02-07T17:48:27;16.85;;;8.93;;
65150;SDS011;51918;51.856;0.150;2023-02-07T17:53:29;18.15;;;8.88;;
65150;SDS011;51918;51.856;0.150;2023-02-07T17:58:30;21.05;;;8.73;;
65150;SDS011;51918;51.856;0.150;2023-02-07T18:03:30;23.90;;;10.00;;
65150;SDS011;51918;51.856;0.150;2023-02-07T18:08:32;23.63;;;9.27;;
65150;SDS011;51918;51.856;0.150;2023-02-07T18:13:33;23.95;;;9.15;;
65150;SDS011;51918;51.856;0.150;2023-02-07T18:18:34;22.20;;;9.18;;
65150;SDS011;51918;51.856;0.150;2023-02-07T18:23:36;18.45;;;8.82;;
65150;SDS011;51918;51.856;0.150;2023-02-07T18:28:37;22.55;;;9.35;;
65150;SDS011;51918;51.856;0.150;2023-02-07T18:33:37;19.20;;;8.93;;
65150;SDS011;51918;51.856;0.150;2023-02-07T18:38:39;19.80;;;9.80;;
65150;SDS011;51918;51.856;0.150;2023-02-07T18:43:40;23.17;;;8.85;;
65150;SDS011;51918;51.856;0.150;2023-02-07T18:48:41;23.90;;;9.75;;
65150;SDS011;51918;51.856;0.150;2023-02-07T18:53:43;22.77;;;9.63;;
65150;SDS011;51918;51.856;0.150;2023-02-07T18:58:44;19.52;;;9.07;;
65150;SDS011;51918;51.856;0.150;2023-02-07T19:03:45;21.80;;;9.43;;
65150;SDS011;51918;51.856;0.150;2023-02-07T19:08:48;18.63;;;8.88;;
65150;SDS011;51918;51.856;0.150;2023-02-07T19:13:49;22.55;;;9.38;;
65150;SDS011;51918;51.856;0.150;2023-02-07T19:18:50;18.98;;;9.27;;
65150;SDS011;51918;51.856;0.150;2023-02-07T19:23:52;23.35;;;10.15;;
65150;SDS011;51918;51.856;0.150;2023-02-07T19:28:53;23.65;;;10.60;;
65150;SDS011;51918;51.856;0.150;2023-02-07T19:38:58;21.45;;;8.68;;
65150;SDS011;51918;51.856;0.150;2023-02-07T19:43:59;24.88;;;10.32;;
65150;SDS011;51918;51.856;0.150;2023-02-07T19:49:00;21.73;;;9.55;;
65150;SDS011;51918;51.856;0.150;2023-02-07T19:54:02;20.85;;;10.38;;
65150;SDS011;51918;51.856;0.150;2023-02-07T19:59:04;24.08;;;10.05;;
65150;SDS011;51918;51.856;0.150;2023-02-07T20:04:05;22.38;;;9.23;;
65150;SDS011;51918;51.856;0.150;2023-02-07T20:09:07;17.70;;;10.07;;
65150;SDS011;51918;51.856;0.150;2023-02-07T20:14:08;23.20;;;9.10;;
65150;SDS011;51918;51.856;0.150;2023-02-07T20:19:09;29.30;;;10.48;;
65150;SDS011;51918;51.856;0.150;2023-02-07T20:24:11;20.45;;;9.05;;
65150;SDS011;51918;51.856;0.150;2023-02-07T20:29:12;21.80;;;9.85;;
65150;SDS011;51918;51.856;0.150;2023-02-07T20:34:14;26.77;;;10.45;;
65150;SDS011;51918;51.856;0.150;2023-02-07T20:39:18;25.17;;;10.68;;
65150;SDS011;51918;51.856;0.150;2023-02-07T20:44:20;24.98;;;11.13;;
65150;SDS011;51918;51.856;0.150;2023-02-07T20:54:25;28.23;;;11.80;;
65150;SDS011;51918;51.856;0.150;2023-02-07T20:59:28;35.78;;;13.65;;
65150;SDS011;51918;51.856;0.150;2023-02-07T21:04:30;27.00;;;12.52;;
65150;SDS011;51918;51.856;0.150;2023-02-07T21:09:32;31.13;;;13.32;;
65150;SDS011;51918;51.856;0.150;2023-02-07T21:14:33;23.85;;;12.13;;
65150;SDS011;51918;51.856;0.150;2023-02-07T21:19:34;38.03;;;13.35;;
65150;SDS011;51918;51.856;0.150;2023-02-07T21:24:37;33.55;;;16.33;;
65150;SDS011;51918;51.856;0.150;2023-02-07T21:29:37;31.02;;;14.05;;
65150;SDS011;51918;51.856;0.150;2023-02-07T21:34:38;29.50;;;12.18;;
65150;SDS011;51918;51.856;0.150;2023-02-07T21:39:40;27.65;;;12.68;;
65150;SDS011;51918;51.856;0.150;2023-02-07T21:44:41;30.50;;;14.05;;
65150;SDS011;51918;51.856;0.150;2023-02-07T21:49:41;29.23;;;14.48;;
65150;SDS011;51918;51.856;0.150;2023-02-07T21:54:43;38.47;;;17.08;;
65150;SDS011;51918;51.856;0.150;2023-02-07T21:59:44;36.67;;;14.95;;
65150;SDS011;51918;51.856;0.150;2023-02-07T22:04:45;31.38;;;13.80;;
65150;SDS011;51918;51.856;0.150;2023-02-07T22:09:47;33.85;;;15.68;;
65150;SDS011;51918;51.856;0.150;2023-02-07T22:14:49;36.80;;;15.60;;
65150;SDS011;51918;51.856;0.150;2023-02-07T22:19:49;30.70;;;14.82;;
65150;SDS011;51918;51.856;0.150;2023-02-07T22:24:51;42.22;;;15.40;;
65150;SDS011;51918;51.856;0.150;2023-02-07T22:29:52;38.03;;;15.95;;
65150;SDS011;51918;51.856;0.150;2023-02-07T22:34:52;33.95;;;13.50;;
65150;SDS011;51918;51.856;0.150;2023-02-07T22:39:54;31.48;;;14.82;;
65150;SDS011;51918;51.856;0.150;2023-02-07T22:44:55;35.33;;;15.90;;
65150;SDS011;51918;51.856;0.150;2023-02-07T22:49:55;47.67;;;21.45;;
65150;SDS011;51918;51.856;0.150;2023-02-07T22:54:57;55.47;;;23.23;;
65150;SDS011;51918;51.856;0.150;2023-02-07T22:59:58;35.65;;;19.52;;
65150;SDS011;51918;51.856;0.150;2023-02-07T23:04:58;39.78;;;17.83;;
65150;SDS011;51918;51.856;0.150;2023-02-07T23:10:00;42.53;;;17.30;;
65150;SDS011;51918;51.856;0.150;2023-02-07T23:15:01;41.40;;;18.98;;
65150;SDS011;51918;51.856;0.150;2023-02-07T23:20:02;66.57;;;26.80;;
65150;SDS011;51918;51.856;0.150;2023-02-07T23:25:05;59.40;;;25.80;;
65150;SDS011;51918;51.856;0.150;2023-02-07T23:30:07;56.35;;;22.45;;
65150;SDS011;51918;51.856;0.150;2023-02-07T23:35:08;48.72;;;23.70;;
65150;SDS011;51918;51.856;0.150;2023-02-07T23:40:10;40.72;;;18.02;;
65150;SDS011;51918;51.856;0.150;2023-02-07T23:45:11;45.30;;;20.40;;
65150;SDS011;51918;51.856;0.150;2023-02-07T23:50:12;46.22;;;21.10;;
65150;SDS011;51918;51.856;0.150;2023-02-07T23:55:13;42.47;;;19.02;;
